Newville, Pennsylvania
Current Conditions -  °F | °C
As of 11:56 PM on Saturday 25 Oct 2014 (Local Time) from KCXY Reporting Station
Overcast Overcast  
Wind Chill: 64°   Ceiling: 6000
Heat Index: 64°   Visibility: 10mi
Dew Point: 50°   Wind: 9mph
Humidity: 60%   Direction: 280°W
Pressure: 29.65"   Gusts: NA
Location:  40.17°N, 77.4°W
Report Text: KCXY 260356Z AUTO 28008KT 10SM SCT049 OVC060 18/10 A2965 RMK AO2 RAB30E53 SLP039 P0000 T01780100
Loading
Personal Weather Stations






























Interactive Weather Map
Tropical Storm Tracking
New forecast layout! Learn more

10-Day Weather Forecast

Advertisements
Track Severe Weather on mobile